createdAt,value
2017-03-30T00:00:00.905Z,76.06
2017-03-30T00:01:02.160Z,76.06
2017-03-30T00:02:03.418Z,76.06
2017-03-30T00:03:04.671Z,75.78
2017-03-30T00:04:05.889Z,75.78
2017-03-30T00:05:07.223Z,75.78
2017-03-30T00:06:08.463Z,75.83
2017-03-30T00:07:09.716Z,75.68
2017-03-30T00:08:10.961Z,75.74
2017-03-30T00:09:12.210Z,75.54
2017-03-30T00:10:13.500Z,75.78
2017-03-30T00:11:14.720Z,75.93
2017-03-30T00:12:15.969Z,75.83
2017-03-30T00:13:17.209Z,75.64
2017-03-30T00:14:18.460Z,75.54
2017-03-30T00:15:19.690Z,75.64
2017-03-30T00:16:20.931Z,75.74
2017-03-30T00:17:22.234Z,75.93
2017-03-30T00:18:23.537Z,76.21
2017-03-30T00:19:24.803Z,76.4
2017-03-30T00:20:26.035Z,76.5
2017-03-30T00:21:27.285Z,76.88
2017-03-30T00:22:28.521Z,76.69
2017-03-30T00:23:29.783Z,76.98
2017-03-30T00:24:31.042Z,77.17
2017-03-30T00:25:32.273Z,76.88
2017-03-30T00:26:33.526Z,77.45
2017-03-30T00:27:34.791Z,77.36
2017-03-30T00:28:36.026Z,77.36
2017-03-30T00:29:37.264Z,77.45
2017-03-30T00:30:38.516Z,77.36
2017-03-30T00:31:39.824Z,77.26
2017-03-30T00:32:41.068Z,77.26
2017-03-30T00:33:42.327Z,77.65
2017-03-30T00:34:43.532Z,77.36
2017-03-30T00:35:44.771Z,77.8
2017-03-30T00:36:46.153Z,78.22
2017-03-30T00:37:47.401Z,78.18
2017-03-30T00:38:48.639Z,77.61
2017-03-30T00:39:49.879Z,77.94
2017-03-30T00:40:51.132Z,77.7
2017-03-30T00:41:52.355Z,78.03
2017-03-30T00:42:53.698Z,77.74
2017-03-30T00:43:54.981Z,78.03
2017-03-30T00:44:56.214Z,78.13
2017-03-30T00:45:57.445Z,77.55
2017-03-30T00:46:58.680Z,77.65
2017-03-30T00:48:00.049Z,77.74
2017-03-30T00:49:01.309Z,77.74
2017-03-30T00:50:02.548Z,77.94
2017-03-30T00:51:03.865Z,77.8
2017-03-30T00:52:05.105Z,78.18
2017-03-30T00:53:06.356Z,77.8
2017-03-30T00:54:07.590Z,77.8
2017-03-30T00:55:08.841Z,77.89
2017-03-30T00:56:10.083Z,78.47
2017-03-30T00:57:11.333Z,78.28
2017-03-30T00:58:12.592Z,78.09
2017-03-30T00:59:13.814Z,78.28
2017-03-30T01:00:15.069Z,78.47
2017-03-30T01:01:16.379Z,78.56
2017-03-30T01:02:17.638Z,78.75
2017-03-30T01:03:18.877Z,78.85
2017-03-30T01:04:20.220Z,78.47
2017-03-30T01:05:21.462Z,78.47
2017-03-30T01:06:22.701Z,78.47
2017-03-30T01:07:23.937Z,78.28
2017-03-30T01:08:25.170Z,78.56
2017-03-30T01:09:26.413Z,78.75
2017-03-30T01:10:27.750Z,78.28
2017-03-30T01:11:28.991Z,78.28
2017-03-30T01:12:30.250Z,78.37
2017-03-30T01:13:31.459Z,78.28
2017-03-30T01:14:32.700Z,78.28
2017-03-30T01:15:34.056Z,78.37
2017-03-30T01:16:35.329Z,78.09
2017-03-30T01:17:36.563Z,77.99
2017-03-30T01:18:37.834Z,77.8
2017-03-30T01:19:39.072Z,77.65
2017-03-30T01:20:40.304Z,77.36
2017-03-30T01:21:41.574Z,77.55
2017-03-30T01:22:42.802Z,77.36
2017-03-30T01:23:44.038Z,77.55
2017-03-30T01:24:45.279Z,77.74
2017-03-30T01:25:46.532Z,76.79
2017-03-30T01:26:47.763Z,77.17
2017-03-30T01:27:49.004Z,76.79
2017-03-30T01:28:50.257Z,76.69
2017-03-30T01:29:51.655Z,76.98
2017-03-30T01:30:52.888Z,76.4
2017-03-30T01:31:54.137Z,76.4
2017-03-30T01:32:55.382Z,76.5
2017-03-30T01:33:56.692Z,76.69
2017-03-30T01:34:57.935Z,76.12
2017-03-30T01:35:59.176Z,76.21
2017-03-30T01:37:00.434Z,76.4
2017-03-30T01:38:01.674Z,76.12
2017-03-30T01:39:02.885Z,75.74
2017-03-30T01:40:04.128Z,75.64
2017-03-30T01:41:05.441Z,75.74
2017-03-30T01:42:06.683Z,76.03
2017-03-30T01:43:08.019Z,75.93
2017-03-30T01:44:09.257Z,75.64
2017-03-30T01:45:10.525Z,75.64
2017-03-30T01:46:11.849Z,75.64
2017-03-30T01:47:13.101Z,75.54
2017-03-30T01:48:14.350Z,75.54
2017-03-30T01:49:15.621Z,75.26
2017-03-30T01:50:16.853Z,75.16
2017-03-30T01:51:18.202Z,75.45
2017-03-30T01:52:19.446Z,75.26
2017-03-30T01:53:20.698Z,75.26
2017-03-30T01:54:21.944Z,75.26
2017-03-30T01:55:23.202Z,75.35
2017-03-30T01:56:24.452Z,75.16
2017-03-30T01:57:25.691Z,75.16
2017-03-30T01:58:26.940Z,75.16
2017-03-30T01:59:28.210Z,75.16
2017-03-30T02:00:29.444Z,75.35
2017-03-30T02:01:30.709Z,75.35
2017-03-30T02:02:31.934Z,75.16
2017-03-30T02:03:33.174Z,75.16
2017-03-30T02:04:34.425Z,75.26
2017-03-30T02:05:35.745Z,75.16
2017-03-30T02:06:37.012Z,75.07
2017-03-30T02:07:38.300Z,74.78
2017-03-30T02:08:39.573Z,74.98
2017-03-30T02:09:40.797Z,74.59
2017-03-30T02:10:42.065Z,74.49
2017-03-30T02:11:43.312Z,74.21
2017-03-30T02:12:44.538Z,74.3
2017-03-30T02:13:45.808Z,74.3
2017-03-30T02:14:47.055Z,74.49
2017-03-30T02:15:48.315Z,74.3
2017-03-30T02:16:49.553Z,74.11
2017-03-30T02:17:50.831Z,73.63
2017-03-30T02:18:52.130Z,73.92
2017-03-30T02:19:53.372Z,73.63
2017-03-30T02:20:54.609Z,73.63
2017-03-30T02:21:55.886Z,73.73
2017-03-30T02:22:57.123Z,73.54
2017-03-30T02:23:58.505Z,73.63
2017-03-30T02:24:59.759Z,73.44
2017-03-30T02:26:01.038Z,73.63
2017-03-30T02:27:02.278Z,73.63
2017-03-30T02:28:03.512Z,73.73
2017-03-30T02:29:04.774Z,73.16
2017-03-30T02:30:06.033Z,72.97
2017-03-30T02:31:07.273Z,73.16
2017-03-30T02:32:08.538Z,73.35
2017-03-30T02:33:09.763Z,73.07
2017-03-30T02:34:11.010Z,73
2017-03-30T02:35:12.272Z,72.78
2017-03-30T02:36:13.503Z,73.39
2017-03-30T02:37:14.726Z,72.97
2017-03-30T02:38:15.979Z,72.91
2017-03-30T02:39:17.232Z,73.07
2017-03-30T02:40:18.493Z,73.25
2017-03-30T02:41:19.713Z,73.19
2017-03-30T02:42:20.952Z,72.87
2017-03-30T02:43:22.202Z,72.97
2017-03-30T02:44:23.545Z,72.81
2017-03-30T02:45:24.739Z,72.97
2017-03-30T02:46:26.150Z,72.78
2017-03-30T02:47:27.399Z,72.91
2017-03-30T02:48:28.642Z,72.81
2017-03-30T02:49:30.000Z,72.81
2017-03-30T02:50:31.330Z,72.87
2017-03-30T02:51:32.578Z,72.81
2017-03-30T02:52:33.911Z,73
2017-03-30T02:53:35.154Z,72.87
2017-03-30T02:54:36.430Z,72.68
2017-03-30T02:55:37.798Z,72.43
2017-03-30T02:56:38.963Z,72.87
2017-03-30T02:57:40.294Z,72.81
2017-03-30T02:58:41.527Z,72.53
2017-03-30T02:59:42.820Z,72.81
2017-03-30T03:00:44.079Z,72.91
2017-03-30T03:01:45.288Z,73.07
2017-03-30T03:02:46.543Z,72.91
2017-03-30T03:03:47.782Z,72.87
2017-03-30T03:04:49.111Z,72.81
2017-03-30T03:05:50.354Z,72.91
2017-03-30T03:06:51.575Z,72.91
2017-03-30T03:07:52.816Z,72.91
2017-03-30T03:08:54.055Z,72.87
2017-03-30T03:09:55.359Z,73.29
2017-03-30T03:10:56.594Z,73.19
2017-03-30T03:11:57.833Z,72.87
2017-03-30T03:12:59.088Z,73.16
2017-03-30T03:14:00.331Z,73.16
2017-03-30T03:15:01.696Z,72.97
2017-03-30T03:16:02.828Z,73.35
2017-03-30T03:17:04.082Z,73.44
2017-03-30T03:18:05.376Z,72.87
2017-03-30T03:19:06.615Z,73.44
2017-03-30T03:20:07.861Z,73.16
2017-03-30T03:21:09.107Z,73.16
2017-03-30T03:22:10.350Z,73.25
2017-03-30T03:23:11.601Z,73.73
2017-03-30T03:24:12.888Z,73.83
2017-03-30T03:25:14.133Z,73.63
2017-03-30T03:26:15.383Z,73.44
2017-03-30T03:27:16.615Z,73.73
2017-03-30T03:28:17.846Z,73.63
2017-03-30T03:29:19.092Z,73.63
2017-03-30T03:30:20.661Z,73.83
2017-03-30T03:31:21.800Z,73.92
2017-03-30T03:32:23.050Z,73.83
2017-03-30T03:33:24.315Z,74.02
2017-03-30T03:34:25.694Z,74.02
2017-03-30T03:35:27.096Z,73.73
2017-03-30T03:36:28.234Z,73.73
2017-03-30T03:37:29.464Z,74.11
2017-03-30T03:38:30.733Z,74.11
2017-03-30T03:39:32.030Z,74.3
2017-03-30T03:40:33.387Z,74.4
2017-03-30T03:41:34.527Z,74.3
2017-03-30T03:42:35.793Z,74.4
2017-03-30T03:43:37.001Z,74.3
2017-03-30T03:44:38.247Z,74.11
2017-03-30T03:45:39.502Z,74.3
2017-03-30T03:46:40.781Z,74.49
2017-03-30T03:47:42.028Z,74.59
2017-03-30T03:48:43.279Z,74.4
2017-03-30T03:49:44.498Z,74.59
2017-03-30T03:50:45.745Z,74.59
2017-03-30T03:51:46.977Z,74.49
2017-03-30T03:52:48.246Z,74.3
2017-03-30T03:53:49.517Z,74.59
2017-03-30T03:54:50.763Z,74.59
2017-03-30T03:55:52.012Z,74.4
2017-03-30T03:56:53.250Z,74.98
2017-03-30T03:57:54.481Z,74.49
2017-03-30T03:58:55.790Z,74.78
2017-03-30T03:59:57.037Z,74.69
2017-03-30T04:00:58.281Z,74.59
2017-03-30T04:01:59.533Z,74.98
2017-03-30T04:03:00.776Z,75.16
2017-03-30T04:04:02.073Z,74.49
2017-03-30T04:05:03.292Z,75.07
2017-03-30T04:06:04.619Z,75.07
2017-03-30T04:07:05.867Z,75.26
2017-03-30T04:08:07.113Z,75.07
2017-03-30T04:09:08.369Z,74.98
2017-03-30T04:10:09.588Z,74.78
2017-03-30T04:11:10.834Z,74.88
2017-03-30T04:12:12.101Z,74.78
2017-03-30T04:13:13.429Z,75.26
2017-03-30T04:14:14.613Z,74.59
2017-03-30T04:15:15.844Z,74.69
2017-03-30T04:16:17.082Z,74.69
2017-03-30T04:17:18.341Z,74.88
2017-03-30T04:18:19.583Z,74.88
2017-03-30T04:19:20.844Z,74.69
2017-03-30T04:20:22.274Z,74.69
2017-03-30T04:21:23.517Z,74.78
2017-03-30T04:22:24.768Z,74.59
2017-03-30T04:23:26.007Z,74.49
2017-03-30T04:24:27.249Z,74.88
2017-03-30T04:25:28.507Z,74.98
2017-03-30T04:26:29.872Z,74.69
2017-03-30T04:27:31.194Z,74.49
2017-03-30T04:28:32.434Z,74.59
2017-03-30T04:29:33.700Z,74.59
2017-03-30T04:30:34.925Z,74.69
2017-03-30T04:31:36.186Z,74.78
2017-03-30T04:32:37.469Z,74.88
2017-03-30T04:33:38.734Z,74.88
2017-03-30T04:34:39.971Z,75.07
2017-03-30T04:35:41.218Z,74.88
2017-03-30T04:36:42.551Z,74.59
2017-03-30T04:37:43.835Z,74.98
2017-03-30T04:38:45.094Z,74.78
2017-03-30T04:39:46.323Z,74.69
2017-03-30T04:40:47.571Z,74.78
2017-03-30T04:41:48.813Z,74.59
2017-03-30T04:42:50.140Z,74.69
2017-03-30T04:43:51.376Z,74.98
2017-03-30T04:44:52.622Z,74.78
2017-03-30T04:45:53.972Z,74.69
2017-03-30T04:46:55.210Z,74.88
2017-03-30T04:47:56.460Z,74.69
2017-03-30T04:48:57.762Z,74.78
2017-03-30T04:49:58.987Z,74.78
2017-03-30T04:51:00.336Z,74.78
2017-03-30T04:52:01.578Z,74.59
2017-03-30T04:53:02.821Z,74.59
2017-03-30T04:54:04.122Z,75.07
2017-03-30T04:55:05.348Z,75.26
2017-03-30T04:56:06.600Z,74.98
2017-03-30T04:57:07.870Z,75.26
2017-03-30T04:58:09.107Z,75.07
2017-03-30T04:59:10.350Z,74.59
2017-03-30T05:00:11.591Z,74.98
2017-03-30T05:01:12.861Z,75.26
2017-03-30T05:02:14.087Z,74.98
2017-03-30T05:03:15.450Z,75.16
2017-03-30T05:04:16.699Z,75.07
2017-03-30T05:05:17.954Z,74.98
2017-03-30T05:06:19.192Z,75.07
2017-03-30T05:07:20.420Z,75.45
2017-03-30T05:08:21.713Z,75.45
2017-03-30T05:09:22.957Z,75.07
2017-03-30T05:10:24.198Z,75.16
2017-03-30T05:11:25.433Z,75.45
2017-03-30T05:12:26.665Z,74.88
2017-03-30T05:13:27.907Z,75.35
2017-03-30T05:14:29.155Z,75.35
2017-03-30T05:15:30.423Z,75.26
2017-03-30T05:16:31.774Z,74.69
2017-03-30T05:17:33.029Z,74.88
2017-03-30T05:18:34.272Z,75.35
2017-03-30T05:19:35.511Z,75.26
2017-03-30T05:20:36.750Z,75.07
2017-03-30T05:21:37.982Z,75.35
2017-03-30T05:22:39.226Z,75.54
2017-03-30T05:23:40.479Z,75.35
2017-03-30T05:24:41.736Z,74.88
2017-03-30T05:25:43.005Z,75.16
2017-03-30T05:26:44.246Z,75.16
2017-03-30T05:27:45.507Z,74.98
2017-03-30T05:28:46.797Z,75.16
2017-03-30T05:29:48.111Z,75.26
2017-03-30T05:30:49.366Z,75.26
2017-03-30T05:31:50.599Z,75.26
2017-03-30T05:32:51.850Z,75.26
2017-03-30T05:33:53.122Z,74.88
2017-03-30T05:34:54.360Z,75.16
2017-03-30T05:35:55.616Z,75.26
2017-03-30T05:36:56.883Z,74.98
2017-03-30T05:37:58.109Z,75.07
2017-03-30T05:38:59.356Z,74.98
2017-03-30T05:40:00.600Z,75.45
2017-03-30T05:41:01.870Z,75.07
2017-03-30T05:42:03.281Z,75.07
2017-03-30T05:43:04.422Z,75.16
2017-03-30T05:44:05.663Z,75.26
2017-03-30T05:45:06.900Z,75.07
2017-03-30T05:46:08.153Z,74.98
2017-03-30T05:47:09.459Z,75.26
2017-03-30T05:48:10.705Z,74.98
2017-03-30T05:49:11.945Z,74.69
2017-03-30T05:50:13.189Z,74.69
2017-03-30T05:51:14.463Z,74.78
2017-03-30T05:52:15.692Z,75.07
2017-03-30T05:53:16.922Z,74.69
2017-03-30T05:54:18.171Z,74.88
2017-03-30T05:55:19.421Z,74.3
2017-03-30T05:56:20.682Z,74.59
2017-03-30T05:57:21.920Z,74.3
2017-03-30T05:58:23.187Z,74.49
2017-03-30T05:59:24.537Z,73.92
2017-03-30T06:00:25.818Z,74.02
2017-03-30T06:01:27.057Z,74.11
2017-03-30T06:02:28.324Z,73.83
2017-03-30T06:03:29.591Z,73.83
2017-03-30T06:04:30.815Z,73.63
2017-03-30T06:05:32.075Z,73.86
2017-03-30T06:06:33.435Z,73.77
2017-03-30T06:07:34.664Z,73.19
2017-03-30T06:08:35.907Z,73.1
2017-03-30T06:09:37.159Z,73.48
2017-03-30T06:10:38.445Z,72.91
2017-03-30T06:11:39.672Z,72.72
2017-03-30T06:12:40.909Z,72.81
2017-03-30T06:13:42.145Z,72.53
2017-03-30T06:14:43.419Z,72.81
2017-03-30T06:15:44.664Z,72.81
2017-03-30T06:16:45.905Z,72.14
2017-03-30T06:17:47.160Z,72.24
2017-03-30T06:18:48.439Z,72.14
2017-03-30T06:19:49.810Z,72.33
2017-03-30T06:20:51.153Z,72.43
2017-03-30T06:21:52.379Z,71.57
2017-03-30T06:22:53.660Z,71.57
2017-03-30T06:23:54.901Z,71.57
2017-03-30T06:24:56.231Z,71.86
2017-03-30T06:25:57.528Z,71.67
2017-03-30T06:26:58.775Z,71.32
2017-03-30T06:28:00.012Z,71.28
2017-03-30T06:29:01.282Z,71
2017-03-30T06:30:02.534Z,70.75
2017-03-30T06:31:03.853Z,71.03
2017-03-30T06:32:05.100Z,71.03
2017-03-30T06:33:06.362Z,70.75
2017-03-30T06:34:07.580Z,70.56
2017-03-30T06:35:08.830Z,70.46
2017-03-30T06:36:10.068Z,70.27
2017-03-30T06:37:11.307Z,69.98
2017-03-30T06:38:12.584Z,69.7
2017-03-30T06:39:13.845Z,69.15
2017-03-30T06:40:15.113Z,69.25
2017-03-30T06:41:16.383Z,69.25
2017-03-30T06:42:17.612Z,68.29
2017-03-30T06:43:18.881Z,68.49
2017-03-30T06:44:20.158Z,67.63
2017-03-30T06:45:21.389Z,67.53
2017-03-30T06:46:22.646Z,67.53
2017-03-30T06:47:23.887Z,66.76
2017-03-30T06:48:25.156Z,67.56
2017-03-30T06:49:26.444Z,67.08
2017-03-30T06:50:27.794Z,66.13
2017-03-30T06:51:28.996Z,66.61
2017-03-30T06:52:30.265Z,66.32
2017-03-30T06:53:31.570Z,66.22
2017-03-30T06:54:32.822Z,65.78
2017-03-30T06:55:34.077Z,65.01
2017-03-30T06:56:35.331Z,64.72
2017-03-30T06:57:36.560Z,64.43
2017-03-30T06:58:37.809Z,63.76
2017-03-30T06:59:39.066Z,63.48
2017-03-30T07:00:40.301Z,63.57
2017-03-30T07:01:41.534Z,63.42
2017-03-30T07:02:42.794Z,63.42
2017-03-30T07:03:44.054Z,62.74
2017-03-30T07:04:45.320Z,62.26
2017-03-30T07:05:46.542Z,62.07
2017-03-30T07:06:47.807Z,62.26
2017-03-30T07:07:49.030Z,61.4
2017-03-30T07:08:50.287Z,61.34
2017-03-30T07:09:51.633Z,61.63
2017-03-30T07:10:52.869Z,60.96
2017-03-30T07:11:54.125Z,60.96
2017-03-30T07:12:55.379Z,60.22
2017-03-30T07:13:56.604Z,59.55
2017-03-30T07:14:58.042Z,59.45
2017-03-30T07:15:59.293Z,58.39
2017-03-30T07:17:00.523Z,57.95
2017-03-30T07:18:01.773Z,57.37
2017-03-30T07:19:03.022Z,56.7
2017-03-30T07:20:04.279Z,56.51
2017-03-30T07:21:05.517Z,56.24
2017-03-30T07:22:06.788Z,55.86
2017-03-30T07:23:08.083Z,55.19
2017-03-30T07:24:09.354Z,55.86
2017-03-30T07:25:10.577Z,56.05
2017-03-30T07:26:11.826Z,55.96
2017-03-30T07:27:13.064Z,55.86
2017-03-30T07:28:14.363Z,55.74
2017-03-30T07:29:15.622Z,56.05
2017-03-30T07:30:16.870Z,55.86
2017-03-30T07:31:18.117Z,55.86
2017-03-30T07:32:19.354Z,55.77
2017-03-30T07:33:20.650Z,55.57
2017-03-30T07:34:21.994Z,55.96
2017-03-30T07:35:23.394Z,55.57
2017-03-30T07:36:24.525Z,55
2017-03-30T07:37:25.775Z,54.09
2017-03-30T07:38:27.015Z,52.58
2017-03-30T07:39:28.390Z,51.23
2017-03-30T07:40:29.687Z,50.4
2017-03-30T07:41:30.952Z,49.82
2017-03-30T07:42:32.242Z,49.91
2017-03-30T07:43:33.493Z,49.91
2017-03-30T07:44:34.737Z,50.08
2017-03-30T07:45:35.988Z,50.54
2017-03-30T07:46:37.255Z,51.4
2017-03-30T07:47:38.504Z,51.59
2017-03-30T07:48:39.768Z,52.26
2017-03-30T07:49:41.015Z,52.26
2017-03-30T07:50:42.265Z,52.72
2017-03-30T07:51:43.514Z,52.72
2017-03-30T07:52:44.783Z,53.27
2017-03-30T07:53:46.072Z,54.04
2017-03-30T07:54:47.326Z,54.55
2017-03-30T07:55:48.574Z,54.16
2017-03-30T07:56:49.829Z,53.49
2017-03-30T07:57:51.068Z,53.78
2017-03-30T07:58:52.316Z,53.01
2017-03-30T07:59:53.633Z,53.49
2017-03-30T08:00:54.908Z,52.53
2017-03-30T08:01:56.204Z,52.53
2017-03-30T08:02:57.445Z,52.36
2017-03-30T08:03:58.769Z,52.65
2017-03-30T08:05:00.042Z,52.08
2017-03-30T08:06:01.275Z,51.88
2017-03-30T08:07:02.591Z,51.88
2017-03-30T08:08:03.829Z,52.26
2017-03-30T08:09:05.079Z,52.55
2017-03-30T08:10:06.419Z,51.79
2017-03-30T08:11:07.627Z,51.5
2017-03-30T08:12:08.907Z,51.14
2017-03-30T08:13:10.188Z,49.84
2017-03-30T08:14:11.475Z,48.06
2017-03-30T08:15:12.735Z,45.58
2017-03-30T08:16:14.024Z,44.73
2017-03-30T08:17:15.277Z,43.14
2017-03-30T08:18:16.578Z,41.42
2017-03-30T08:19:17.858Z,38.95
2017-03-30T08:20:19.089Z,37.71
2017-03-30T08:21:20.350Z,36.57
2017-03-30T08:22:21.583Z,35.42
2017-03-30T08:23:22.863Z,35.21
2017-03-30T08:24:24.107Z,35.12
2017-03-30T08:25:25.424Z,35.6
2017-03-30T08:26:26.665Z,35.97
2017-03-30T08:27:27.916Z,36.53
2017-03-30T08:28:29.183Z,36.63
2017-03-30T08:29:30.403Z,36.47
2017-03-30T08:30:31.771Z,34.65
2017-03-30T08:31:33.156Z,34.09
2017-03-30T08:32:34.439Z,33.23
2017-03-30T08:33:35.708Z,32.57
2017-03-30T08:34:36.984Z,32.09
2017-03-30T08:35:38.286Z,31.13
2017-03-30T08:36:39.589Z,30.58
2017-03-30T08:37:40.817Z,29.43
2017-03-30T08:38:42.074Z,28.57
2017-03-30T08:39:43.341Z,28
2017-03-30T08:40:44.606Z,27.51
2017-03-30T08:41:45.961Z,27.22
2017-03-30T08:42:47.298Z,27.33
2017-03-30T08:43:48.433Z,26.37
2017-03-30T08:44:49.730Z,26.07
2017-03-30T08:45:50.994Z,25.69
2017-03-30T08:46:52.234Z,25.02
2017-03-30T08:47:53.643Z,25.01
2017-03-30T08:48:54.786Z,25.51
2017-03-30T08:49:56.067Z,24.46
2017-03-30T08:50:57.299Z,23.29
2017-03-30T08:51:58.543Z,24.16
2017-03-30T08:52:59.852Z,24.05
2017-03-30T08:54:01.069Z,24.72
2017-03-30T08:55:02.310Z,24.71
2017-03-30T08:56:03.661Z,26.23
2017-03-30T08:57:04.920Z,27.01
2017-03-30T08:58:06.178Z,27.58
2017-03-30T08:59:07.426Z,28.25
2017-03-30T09:00:08.685Z,28.64
2017-03-30T09:01:09.950Z,28.83
2017-03-30T09:02:11.284Z,28.44
2017-03-30T09:03:12.471Z,28.25
2017-03-30T09:04:13.706Z,28.34
2017-03-30T09:05:15.004Z,29.1
2017-03-30T09:06:16.229Z,29.87
2017-03-30T09:07:17.492Z,30.07
2017-03-30T09:08:18.742Z,29.85
2017-03-30T09:09:19.986Z,30.26
2017-03-30T09:10:21.237Z,30.08
2017-03-30T09:11:22.486Z,29.02
2017-03-30T09:12:23.739Z,28.38
2017-03-30T09:13:25.013Z,26.64
2017-03-30T09:14:26.313Z,26.75
2017-03-30T09:15:27.564Z,26.15
2017-03-30T09:16:28.798Z,26.26
2017-03-30T09:17:30.051Z,25.86
2017-03-30T09:18:31.330Z,26.33
2017-03-30T09:19:32.554Z,26.81
2017-03-30T09:20:33.922Z,27.68
2017-03-30T09:21:35.176Z,27.12
2017-03-30T09:22:36.437Z,26.46
2017-03-30T09:23:37.664Z,25.3
2017-03-30T09:24:38.982Z,24.54
2017-03-30T09:25:40.354Z,24.35
2017-03-30T09:26:41.660Z,23.29
2017-03-30T09:27:42.919Z,22.73
2017-03-30T09:28:44.165Z,22.62
2017-03-30T09:29:45.416Z,22.23
2017-03-30T09:30:46.682Z,22.52
2017-03-30T09:31:48.091Z,21.94
2017-03-30T09:32:49.348Z,22.22
2017-03-30T09:33:50.605Z,22.99
2017-03-30T09:34:51.864Z,23.75
2017-03-30T09:35:53.121Z,23.57
2017-03-30T09:36:54.385Z,22.9
2017-03-30T09:37:55.743Z,21.85
2017-03-30T09:38:56.987Z,21.07
2017-03-30T09:39:58.383Z,20.78
2017-03-30T09:40:59.643Z,20.98
2017-03-30T09:42:00.918Z,21.37
2017-03-30T09:43:02.206Z,20.61
2017-03-30T09:44:03.571Z,20.51
2017-03-30T09:45:04.818Z,20.7
2017-03-30T09:46:06.069Z,20.5
2017-03-30T09:47:07.337Z,21.46
2017-03-30T09:48:08.585Z,22.12
2017-03-30T09:49:09.914Z,22.5
2017-03-30T09:50:11.184Z,23.94
2017-03-30T09:51:12.452Z,24.61
2017-03-30T09:52:13.709Z,25.56
2017-03-30T09:53:14.962Z,26.89
2017-03-30T09:54:16.209Z,27.37
2017-03-30T09:55:17.465Z,27.57
2017-03-30T09:56:18.742Z,27.37
2017-03-30T09:57:19.978Z,27
2017-03-30T09:58:21.235Z,26.92
2017-03-30T09:59:22.511Z,25.96
2017-03-30T10:00:23.765Z,25.78
2017-03-30T10:01:25.012Z,24.8
2017-03-30T10:02:26.267Z,24.23
2017-03-30T10:03:27.552Z,24.71
2017-03-30T10:04:28.793Z,24.99
2017-03-30T10:05:30.040Z,24.9
2017-03-30T10:06:31.302Z,25.29
2017-03-30T10:07:32.548Z,23.84
2017-03-30T10:08:33.867Z,23.55
2017-03-30T10:09:35.151Z,23.84
2017-03-30T10:10:36.404Z,23.25
2017-03-30T10:11:37.657Z,23.46
2017-03-30T10:12:38.914Z,22.69
2017-03-30T10:13:40.163Z,22.02
2017-03-30T10:14:41.597Z,21.35
2017-03-30T10:15:42.872Z,20.87
2017-03-30T10:16:44.130Z,20.7
2017-03-30T10:17:45.383Z,19.44
2017-03-30T10:18:46.676Z,19.16
2017-03-30T10:19:47.999Z,19.35
2017-03-30T10:20:49.259Z,19.07
2017-03-30T10:21:50.512Z,18.49
2017-03-30T10:22:51.753Z,18.1
2017-03-30T10:23:53.004Z,17.72
2017-03-30T10:24:54.275Z,17.31
2017-03-30T10:25:55.590Z,18.85
2017-03-30T10:26:56.862Z,19.24
2017-03-30T10:27:58.137Z,19.62
2017-03-30T10:28:59.395Z,19.64
2017-03-30T10:30:00.649Z,18.77
2017-03-30T10:31:01.926Z,18.57
2017-03-30T10:32:03.199Z,18.87
2017-03-30T10:33:04.466Z,18.77
2017-03-30T10:34:05.761Z,18.39
2017-03-30T10:35:07.030Z,17.72
2017-03-30T10:36:08.267Z,17.42
2017-03-30T10:37:09.549Z,18.19
2017-03-30T10:38:10.805Z,18.66
2017-03-30T10:39:12.110Z,19.64
2017-03-30T10:40:13.442Z,20.04
2017-03-30T10:41:14.689Z,19.55
2017-03-30T10:42:15.956Z,19.55
2017-03-30T10:43:17.203Z,20.12
2017-03-30T10:44:18.437Z,20.2
2017-03-30T10:45:19.747Z,21.07
2017-03-30T10:46:20.972Z,21.55
2017-03-30T10:47:22.226Z,22.41
2017-03-30T10:48:23.474Z,22.31
2017-03-30T10:49:24.899Z,22.87
2017-03-30T10:50:26.310Z,24.61
2017-03-30T10:51:27.650Z,25.36
2017-03-30T10:52:28.887Z,26.33
2017-03-30T10:53:30.117Z,26.71
2017-03-30T10:54:31.357Z,26.9
2017-03-30T10:55:32.635Z,27.36
2017-03-30T10:56:33.968Z,28.04
2017-03-30T10:57:35.241Z,28.32
2017-03-30T10:58:36.486Z,28.59
2017-03-30T10:59:37.736Z,29.94
2017-03-30T11:00:38.997Z,30.13
2017-03-30T11:01:40.278Z,30.51
2017-03-30T11:02:41.540Z,31.09
2017-03-30T11:03:42.792Z,31.26
2017-03-30T11:04:44.027Z,31.84
2017-03-30T11:05:45.305Z,32.41
2017-03-30T11:06:46.624Z,32.97
2017-03-30T11:07:48.008Z,32.97
2017-03-30T11:08:49.140Z,33.84
2017-03-30T11:09:50.409Z,34.31
2017-03-30T11:10:51.759Z,34.31
2017-03-30T11:11:53.008Z,34.6
2017-03-30T11:12:54.240Z,35.08
2017-03-30T11:13:55.527Z,35.26
2017-03-30T11:14:56.746Z,35.45
2017-03-30T11:15:58.016Z,35.26
2017-03-30T11:16:59.286Z,35.74
2017-03-30T11:18:00.539Z,36.03
2017-03-30T11:19:01.793Z,35.74
2017-03-30T11:20:03.077Z,35.16
2017-03-30T11:21:04.369Z,36.13
2017-03-30T11:22:05.704Z,35.74
2017-03-30T11:23:06.955Z,35.45
2017-03-30T11:24:08.203Z,35.64
2017-03-30T11:25:09.453Z,35.45
2017-03-30T11:26:10.748Z,36.52
2017-03-30T11:27:12.147Z,36.52
2017-03-30T11:28:13.376Z,35.45
2017-03-30T11:29:14.643Z,35.36
2017-03-30T11:30:15.908Z,35.45
2017-03-30T11:31:17.186Z,35.36
2017-03-30T11:32:18.525Z,35.16
2017-03-30T11:33:19.787Z,35.64
2017-03-30T11:34:21.043Z,35.55
2017-03-30T11:35:22.275Z,35.94
2017-03-30T11:36:23.510Z,36.42
2017-03-30T11:37:24.769Z,36.03
2017-03-30T11:38:26.072Z,35.84
2017-03-30T11:39:27.345Z,35.64
2017-03-30T11:40:28.614Z,36.42
2017-03-30T11:41:29.855Z,35.26
2017-03-30T11:42:31.107Z,35.74
2017-03-30T11:43:32.365Z,35.45
2017-03-30T11:44:33.612Z,35.36
2017-03-30T11:45:34.887Z,34.68
2017-03-30T11:46:36.280Z,34.97
2017-03-30T11:47:37.509Z,34.58
2017-03-30T11:48:38.767Z,34.78
2017-03-30T11:49:40.048Z,35.24
2017-03-30T11:50:41.417Z,35.24
2017-03-30T11:51:42.697Z,35.63
2017-03-30T11:52:43.938Z,35.82
2017-03-30T11:53:45.188Z,35.82
2017-03-30T11:54:46.446Z,36.03
2017-03-30T11:55:47.714Z,35.16
2017-03-30T11:56:48.974Z,34.78
2017-03-30T11:57:50.235Z,35.28
2017-03-30T11:58:51.486Z,34.6
2017-03-30T11:59:52.737Z,34.79
2017-03-30T12:00:53.989Z,34.41
2017-03-30T12:01:55.219Z,33.63
2017-03-30T12:02:56.531Z,34.02
2017-03-30T12:03:57.816Z,34.04
2017-03-30T12:04:59.055Z,34.31
2017-03-30T12:06:00.287Z,33.92
2017-03-30T12:07:01.526Z,33.75
2017-03-30T12:08:02.776Z,34.33
2017-03-30T12:09:04.048Z,34.52
2017-03-30T12:10:05.278Z,33.83
2017-03-30T12:11:06.548Z,33.73
2017-03-30T12:12:07.791Z,34.79
2017-03-30T12:13:09.051Z,35.08
2017-03-30T12:14:10.306Z,35.37
2017-03-30T12:15:11.557Z,35.16
2017-03-30T12:16:12.818Z,35.16
2017-03-30T12:17:14.097Z,35.16
2017-03-30T12:18:15.381Z,35.84
2017-03-30T12:19:16.803Z,35.94
2017-03-30T12:20:18.056Z,35.84
2017-03-30T12:21:19.298Z,35.26
2017-03-30T12:22:20.558Z,35.94
2017-03-30T12:23:21.858Z,35.64
2017-03-30T12:24:23.087Z,35.64
2017-03-30T12:25:24.343Z,35.16
2017-03-30T12:26:25.583Z,35.64
2017-03-30T12:27:26.837Z,35.84
2017-03-30T12:28:28.129Z,35.53
2017-03-30T12:29:29.468Z,35.72
2017-03-30T12:30:30.597Z,35.53
2017-03-30T12:31:31.865Z,35.72
2017-03-30T12:32:33.111Z,35.53
2017-03-30T12:33:34.368Z,35.63
2017-03-30T12:34:35.619Z,35.05
2017-03-30T12:35:36.940Z,35.53
2017-03-30T12:36:38.181Z,36.11
2017-03-30T12:37:39.416Z,35.82
2017-03-30T12:38:40.700Z,36.21
2017-03-30T12:39:41.976Z,36.11
2017-03-30T12:40:43.245Z,35.92
2017-03-30T12:41:44.490Z,35.24
2017-03-30T12:42:45.879Z,35.24
2017-03-30T12:43:47.105Z,35.34
2017-03-30T12:44:48.360Z,34.45
2017-03-30T12:45:49.616Z,35.13
2017-03-30T12:46:50.869Z,35.03
2017-03-30T12:47:52.184Z,34.74
2017-03-30T12:48:53.438Z,35.34
2017-03-30T12:49:54.696Z,34.95
2017-03-30T12:50:55.935Z,34.28
2017-03-30T12:51:57.186Z,33.8
2017-03-30T12:52:58.556Z,34.28
2017-03-30T12:53:59.849Z,34.47
2017-03-30T12:55:01.116Z,34.66
2017-03-30T12:56:02.368Z,34.47
2017-03-30T12:57:03.617Z,34.76
2017-03-30T12:58:04.940Z,34.95
2017-03-30T12:59:06.240Z,34.66
2017-03-30T13:00:07.644Z,34.86
2017-03-30T13:01:08.901Z,34.76
2017-03-30T13:02:10.154Z,35.24
2017-03-30T13:03:11.422Z,36.01
2017-03-30T13:04:12.664Z,35.24
2017-03-30T13:05:13.916Z,34.68
2017-03-30T13:06:15.208Z,35.16
2017-03-30T13:07:16.517Z,35.16
2017-03-30T13:08:17.747Z,35.16
2017-03-30T13:09:19.013Z,36.13
2017-03-30T13:10:20.260Z,35.16